Weather History for Cadillac, MI

Change the Weather History Date:

Tuesday, October 1, 2013

  Actual Average Record
Temperature  
Mean Temperature 62 °F -  
Max Temperature 71 °F 62 °F 80 °F (2002)
Min Temperature 54 °F 37 °F 23 °F (1984)
Degree Days  
Heating Degree Days 2    
Growing Degree Days 12 (Base 50)    
Moisture  
Dew Point 57 °F    
Average Humidity 81    
Maximum Humidity 90    
Minimum Humidity 67    
Precipitation  
Precipitation 0.00 in - - ()
Sea Level Pressure  
Sea Level Pressure 29.88 in    
Wind  
Wind Speed 10 mph (SSW)    
Max Wind Speed 25 mph    
Max Gust Speed 33 mph    
Visibility 9 miles    
Events      
Averages and records for this station are not official NWS values.
T = Trace of Precipitation, MM = Missing Value Source: NWS Daily Summary

Daily Weather History Graph

Daily Weather History Graph

Search for Another Location

Airport:

Trip Planner

Search our weather history database for the weather conditions in past years. The results will help you decide how hot, cold, wet, or windy it might be!

Date:

Astronomy

Oct. 01, 2013 Rise Set
Actual Time 7:39 AM EDT 7:21 PM EDT
Civil Twilight 7:10 AM EDT 7:50 PM EDT
Nautical Twilight 6:37 AM EDT 8:24 PM EDT
Astronomical Twilight 6:03 AM EDT 8:58 PM EDT
Moon 4:06 AM EDT 5:30 PM EDT
Length of Visible Light 12h 39m
Length of Day
11h 42m
Waning Crescent, 12% of the Moon is Illuminated
Oct 1
Waning Crescent
Oct 4
New
Oct 11
First Quarter
Oct 18
Full
Oct 26
Last Quarter

Hourly Weather History & Observations

Time (EDT) Temp. Dew Point Humidity Pressure Visibility Wind Dir Wind Speed Gust Speed Precip Events Conditions
12:15 AM 56.5 °F 49.3 °F 77% 29.90 in 10.0 mi South 6.9 mph - N/A   Clear
12:35 AM 56.7 °F 48.7 °F 75% 29.90 in 10.0 mi South 9.2 mph - N/A   Clear
12:54 AM 57.7 °F 48.6 °F 71% 29.91 in 10.0 mi South 6.9 mph - N/A   Clear
1:15 AM 56.5 °F 47.3 °F 71% 29.90 in 10.0 mi South 4.6 mph - N/A   Clear
1:35 AM 56.5 °F 47.5 °F 72% 29.91 in 10.0 mi South 3.5 mph - N/A   Clear
1:54 AM 56.5 °F 48.6 °F 75% 29.91 in 10.0 mi SSW 3.5 mph - N/A   Clear
2:15 AM 56.3 °F 49.8 °F 79% 29.92 in 10.0 mi Calm Calm - N/A   Clear
2:35 AM 54.0 °F 48.6 °F 82% 29.92 in 10.0 mi South 3.5 mph - N/A   Clear
2:54 AM 56.5 °F 50.9 °F 82% 29.92 in 10.0 mi South 4.6 mph - N/A   Clear
3:15 AM 56.5 °F 50.9 °F 82% 29.92 in 10.0 mi South 4.6 mph - N/A   Clear
3:35 AM 54.0 °F 49.3 °F 84% 29.91 in 10.0 mi South 4.6 mph - N/A   Clear
3:54 AM 56.1 °F 51.1 °F 83% 29.91 in 10.0 mi SSW 4.6 mph - N/A   Clear
4:15 AM 54.3 °F 49.5 °F 84% 29.91 in 10.0 mi SSW 5.8 mph - N/A   Clear
4:35 AM 56.5 °F 51.4 °F 83% 29.91 in 10.0 mi SSW 8.1 mph - N/A   Clear
4:54 AM 56.5 °F 51.6 °F 84% 29.90 in 10.0 mi SSW 5.8 mph - N/A   Clear
5:15 AM 56.5 °F 51.8 °F 84% 29.90 in 10.0 mi SSW 9.2 mph - N/A   Clear
5:34 AM 56.5 °F 52.0 °F 85% 29.90 in 10.0 mi SSW 9.2 mph - N/A   Clear
5:55 AM 56.5 °F 52.2 °F 85% 29.89 in 10.0 mi SSW 10.4 mph - N/A   Clear
6:15 AM 56.5 °F 52.3 °F 86% 29.89 in 10.0 mi SSW 9.2 mph - N/A   Clear
6:34 AM 56.5 °F 52.7 °F 87% 29.89 in 10.0 mi South 9.2 mph - N/A   Clear
6:54 AM 56.5 °F 52.7 °F 87% 29.88 in 10.0 mi SSW 9.2 mph - N/A   Clear
7:15 AM 56.5 °F 52.9 °F 88% 29.89 in 7.0 mi SSW 8.1 mph - N/A   Clear
7:34 AM 56.5 °F 53.2 °F 89% 29.90 in 7.0 mi SSW 6.9 mph - N/A   Clear
7:55 AM 56.5 °F 53.6 °F 90% 29.89 in 5.0 mi South 6.9 mph - N/A   Clear
8:15 AM 56.5 °F 53.6 °F 90% 29.89 in 5.0 mi South 5.8 mph - N/A   Scattered Clouds
8:34 AM 56.5 °F 53.6 °F 90% 29.89 in 5.0 mi South 6.9 mph - N/A   Mostly Cloudy
8:55 AM 57.7 °F 54.7 °F 90% 29.90 in 5.0 mi South 6.9 mph - N/A   Overcast
9:15 AM 59.0 °F 55.9 °F 90% 29.90 in 5.0 mi South 8.1 mph - N/A   Overcast
9:34 AM 59.0 °F 55.9 °F 90% 29.90 in 5.0 mi South 9.2 mph - N/A   Overcast
9:55 AM 61.7 °F 58.3 °F 89% 29.89 in 5.0 mi South 9.2 mph 16.1 mph N/A   Overcast
10:15 AM 61.7 °F 57.7 °F 87% 29.89 in 7.0 mi SSW 10.4 mph - N/A   Overcast
10:34 AM 62.8 °F 59.0 °F 87% 29.88 in 7.0 mi SSW 11.5 mph 17.3 mph N/A   Overcast
10:55 AM 64.0 °F 59.5 °F 85% 29.89 in 10.0 mi SSW 11.5 mph 20.7 mph N/A   Overcast
11:15 AM 64.8 °F 59.9 °F 84% 29.88 in 10.0 mi SSW 11.5 mph 16.1 mph N/A   Overcast
11:34 AM 65.3 °F 59.9 °F 83% 29.87 in 10.0 mi SSW 18.4 mph 25.3 mph N/A   Overcast
11:55 AM 66.6 °F 60.8 °F 82% 29.87 in 10.0 mi SSW 18.4 mph 24.2 mph N/A   Overcast
12:15 PM 66.9 °F 60.4 °F 80% 29.86 in 10.0 mi SSW 17.3 mph 28.8 mph N/A   Overcast
12:34 PM 67.8 °F 61.2 °F 79% 29.86 in 10.0 mi SSW 16.1 mph 25.3 mph N/A   Overcast
12:55 PM 69.1 °F 61.7 °F 77% 29.86 in 10.0 mi SSW 13.8 mph 25.3 mph N/A   Overcast
1:15 PM 71.6 °F 63.3 °F 75% 29.86 in 10.0 mi SSW 19.6 mph 23.0 mph N/A   Overcast
1:34 PM 71.6 °F 63.1 °F 75% 29.85 in 10.0 mi SSW 19.6 mph 26.5 mph N/A   Overcast
1:55 PM 71.6 °F 62.6 °F 73% 29.85 in 10.0 mi SSW 17.3 mph 28.8 mph N/A   Overcast
2:15 PM 71.6 °F 61.7 °F 71% 29.85 in 10.0 mi SSW 18.4 mph 31.1 mph N/A   Overcast
2:34 PM 71.6 °F 62.1 °F 72% 29.84 in 10.0 mi SSW 20.7 mph 27.6 mph N/A   Overcast
2:55 PM 71.6 °F 60.8 °F 69% 29.83 in 10.0 mi SSW 20.7 mph 27.6 mph N/A   Scattered Clouds
3:15 PM 71.6 °F 60.6 °F 68% 29.82 in 10.0 mi South 20.7 mph 33.4 mph N/A   Scattered Clouds
3:34 PM 71.6 °F 60.3 °F 67% 29.83 in 10.0 mi SSW 25.3 mph 32.2 mph N/A   Scattered Clouds
3:55 PM 71.6 °F 60.1 °F 67% 29.84 in 10.0 mi SW 19.6 mph 33.4 mph N/A   Scattered Clouds
4:15 PM 71.6 °F 60.8 °F 69% 29.84 in 10.0 mi SSW 25.3 mph 33.4 mph N/A   Scattered Clouds
4:34 PM 71.6 °F 61.0 °F 69% 29.84 in 10.0 mi SW 23.0 mph 29.9 mph N/A   Mostly Cloudy
4:55 PM 71.6 °F 61.5 °F 70% 29.84 in 10.0 mi SW 19.6 mph 26.5 mph N/A   Mostly Cloudy
5:15 PM 71.6 °F 62.2 °F 72% 29.84 in 10.0 mi SW 21.9 mph 31.1 mph N/A   Mostly Cloudy
5:34 PM 71.4 °F 62.4 °F 73% 29.85 in 10.0 mi SW 17.3 mph 26.5 mph N/A   Overcast
5:55 PM 69.1 °F 61.0 °F 75% 29.86 in 10.0 mi SSW 15.0 mph 19.6 mph N/A   Overcast
6:14 PM 69.1 °F 61.0 °F 75% 29.86 in 10.0 mi SSW 13.8 mph 21.9 mph N/A   Overcast
6:34 PM 69.1 °F 61.7 °F 77% 29.86 in 10.0 mi SSW 12.7 mph 20.7 mph N/A   Overcast
6:55 PM 67.3 °F 60.6 °F 79% 29.86 in 10.0 mi SSW 15.0 mph - N/A   Overcast
7:14 PM 66.6 °F 60.8 °F 82% 29.86 in 10.0 mi SSW 11.5 mph 20.7 mph N/A   Overcast
7:34 PM 66.6 °F 60.8 °F 82% 29.87 in 10.0 mi SSW 12.7 mph 20.7 mph N/A   Overcast
7:55 PM 65.3 °F 60.1 °F 83% 29.87 in 7.0 mi SSW 13.8 mph - N/A   Mostly Cloudy
8:14 PM 64.8 °F 59.9 °F 84% 29.88 in 7.0 mi SSW 12.7 mph 19.6 mph N/A   Scattered Clouds
8:34 PM 64.0 °F 59.5 °F 85% 29.88 in 7.0 mi SW 10.4 mph - N/A   Clear
8:55 PM 64.0 °F 59.9 °F 86% 29.89 in 7.0 mi SW 9.2 mph - N/A   Clear
9:14 PM 64.0 °F 59.9 °F 86% 29.89 in 7.0 mi SW 11.5 mph - N/A   Clear
9:35 PM 64.0 °F 60.1 °F 87% 29.89 in 7.0 mi SW 11.5 mph - N/A   Clear
9:55 PM 63.1 °F 59.4 °F 87% 29.89 in 7.0 mi SW 10.4 mph - N/A   Clear
10:14 PM 62.8 °F 59.2 °F 88% 29.89 in 5.0 mi SW 10.4 mph - N/A   Clear
10:35 PM 62.8 °F 59.4 °F 89% 29.89 in 5.0 mi SW 10.4 mph - N/A   Clear
10:55 PM 61.9 °F 59.0 °F 90% 29.89 in 5.0 mi SW 6.9 mph - N/A   Clear
11:14 PM 62.1 °F 59.2 °F 90% 29.90 in 5.0 mi WSW 5.8 mph - N/A   Clear
11:35 PM 61.7 °F 58.5 °F 89% 29.90 in 4.0 mi WSW 5.8 mph - N/A   Clear
11:55 PM 61.7 °F 58.5 °F 89% 29.91 in 4.0 mi WSW 5.8 mph - N/A   Clear